Time;durP1;ratioP1;P1;durP2;ratioP2;P2;SDS_P1;SDS_P2;PMS_P1;PMS_P2;Temp;Humidity;BMP_temperature;BMP_pressure;BME280_temperature;BME280_humidity;BME280_pressure;Samples;Min_cycle;Max_cycle;Signal;HPM_P1;HPM_P2
2022/11/04 00:01:56;;;;;;;26.30;20.90;;;8.80;96.30;;;;;;4957406;28;20438;-80
2022/11/04 00:04:24;;;;;;;22.27;19.87;;;8.80;96.30;;;;;;4959200;28;20529;-81
2022/11/04 00:06:50;;;;;;;21.50;18.83;;;8.80;96.30;;;;;;4957301;29;20426;-81
2022/11/04 00:09:22;;;;;;;19.73;15.53;;;8.80;96.30;;;;;;4965501;29;20414;-81
2022/11/04 00:42:52;;;;;;;21.40;19.00;;;8.80;96.30;;;;;;5644125;23;20486;-75
2022/11/04 00:45:17;;;;;;;22.60;17.17;;;8.80;96.30;;;;;;4973153;28;20472;-76
2022/11/04 00:47:43;;;;;;;22.37;18.23;;;8.80;96.30;;;;;;4973876;28;20527;-75
2022/11/04 00:50:08;;;;;;;26.50;19.53;;;8.80;96.30;;;;;;4975653;28;20226;-75
2022/11/04 00:52:34;;;;;;;34.30;18.23;;;8.80;96.30;;;;;;4975528;28;20194;-75
2022/11/04 00:54:59;;;;;;;21.97;19.40;;;8.90;96.30;;;;;;4975582;28;20174;-75
2022/11/04 00:57:25;;;;;;;20.57;16.10;;;8.80;96.30;;;;;;4974918;28;20182;-75
2022/11/04 00:59:50;;;;;;;22.93;19.07;;;8.80;96.30;;;;;;4975423;28;20266;-75
2022/11/04 05:00:29;;;;;;;22.03;16.67;;;9.00;96.30;;;;;;5938620;23;20361;-77
2022/11/04 05:02:54;;;;;;;23.83;17.03;;;9.00;96.30;;;;;;4955788;28;20752;-77
2022/11/04 05:05:20;;;;;;;23.17;15.80;;;9.00;96.30;;;;;;4955991;28;20490;-77
2022/11/04 05:07:46;;;;;;;22.80;16.87;;;8.90;96.30;;;;;;4955503;28;20178;-76
2022/11/04 05:10:13;;;;;;;20.20;15.77;;;9.00;96.30;;;;;;4955677;28;20294;-77
2022/11/04 05:15:25;;;;;;;22.40;16.93;;;9.00;96.30;;;;;;4959286;29;20450;-79
2022/11/04 05:17:59;;;;;;;25.53;18.00;;;8.90;96.30;;;;;;4959472;29;20918;-80
2022/11/04 05:30:46;;;;;;;21.40;13.10;;;8.90;96.30;;;;;;5863366;23;20998;-78
2022/11/04 05:33:12;;;;;;;19.87;14.60;;;8.90;96.30;;;;;;4992676;28;20414;-78
2022/11/04 05:35:37;;;;;;;21.80;14.73;;;9.00;96.30;;;;;;4997001;28;20208;-80
2022/11/04 05:38:03;;;;;;;16.83;12.10;;;8.90;96.30;;;;;;4997021;28;20180;-80
2022/11/04 05:40:28;;;;;;;18.63;14.47;;;8.90;96.30;;;;;;4998730;28;20350;-80
2022/11/04 05:42:57;;;;;;;15.73;11.30;;;8.90;96.30;;;;;;4994763;28;20704;-78
2022/11/04 05:45:22;;;;;;;15.07;9.90;;;8.90;96.30;;;;;;4994311;28;20209;-81
2022/11/04 05:47:55;;;;;;;13.10;8.90;;;8.90;96.30;;;;;;4999751;28;20425;-78
2022/11/04 06:03:17;;;;;;;13.77;9.87;;;8.90;96.30;;;;;;5327464;23;20861;-77
2022/11/04 06:05:43;;;;;;;17.67;15.50;;;8.80;96.30;;;;;;4992560;28;20960;-77
2022/11/04 06:08:08;;;;;;;9.27;7.37;;;8.80;96.30;;;;;;4975517;28;20645;-80
2022/11/04 06:10:34;;;;;;;11.80;8.47;;;8.80;96.30;;;;;;4955018;28;20221;-81
2022/11/04 06:13:00;;;;;;;10.20;9.00;;;8.80;96.30;;;;;;5014882;28;20181;-81
2022/11/04 06:15:25;;;;;;;10.70;7.50;;;8.80;96.30;;;;;;5010055;28;20169;-82
2022/11/04 06:17:51;;;;;;;19.30;11.20;;;8.80;96.30;;;;;;5010808;28;20219;-82
2022/11/04 06:20:16;;;;;;;13.20;11.60;;;8.80;96.30;;;;;;5002658;28;20731;-82
2022/11/04 06:22:42;;;;;;;7.87;6.57;;;8.80;96.30;;;;;;5006697;28;20180;-81
2022/11/04 06:25:08;;;;;;;13.67;9.40;;;8.80;96.30;;;;;;5000989;28;20677;-82
2022/11/04 06:27:33;;;;;;;9.20;6.77;;;8.80;96.30;;;;;;5007327;28;20213;-82
2022/11/04 06:29:59;;;;;;;19.70;9.43;;;8.80;96.30;;;;;;4998686;28;20193;-81
2022/11/04 06:32:24;;;;;;;7.93;5.97;;;8.80;96.30;;;;;;4995279;28;20217;-83
2022/11/04 06:34:50;;;;;;;12.73;7.07;;;8.80;96.30;;;;;;4994240;28;20212;-80
2022/11/04 06:37:15;;;;;;;10.30;7.00;;;8.80;96.30;;;;;;5000713;28;20271;-80
2022/11/04 06:39:41;;;;;;;17.97;9.23;;;8.80;96.30;;;;;;5001710;28;20656;-81
2022/11/04 06:42:06;;;;;;;15.63;7.47;;;8.80;96.30;;;;;;5009046;28;20228;-81
2022/11/04 06:44:35;;;;;;;16.87;10.20;;;8.80;96.30;;;;;;5006179;28;20257;-82
2022/11/04 06:47:01;;;;;;;9.27;6.80;;;8.70;96.30;;;;;;5005485;28;20172;-82
2022/11/04 06:49:27;;;;;;;7.90;6.20;;;8.70;96.30;;;;;;5007118;28;20448;-82
2022/11/04 06:51:53;;;;;;;9.97;7.60;;;8.70;96.30;;;;;;5020602;28;20204;-82
2022/11/04 06:54:18;;;;;;;6.93;6.20;;;8.70;96.30;;;;;;5014227;28;20586;-80
2022/11/04 06:56:44;;;;;;;5.87;5.27;;;8.70;96.30;;;;;;5008010;28;20197;-83
2022/11/04 06:59:18;;;;;;;7.27;5.70;;;8.80;96.30;;;;;;5007681;28;20209;-79
2022/11/04 07:01:45;;;;;;;7.97;5.00;;;8.80;96.30;;;;;;5002214;28;20304;-78
2022/11/04 07:04:10;;;;;;;7.93;5.23;;;8.80;96.30;;;;;;5006397;28;20460;-80
2022/11/04 07:06:36;;;;;;;9.83;5.40;;;8.80;96.30;;;;;;5009346;28;20431;-83
2022/11/04 07:09:02;;;;;;;5.77;5.20;;;8.90;96.30;;;;;;5024796;28;20180;-78
2022/11/04 07:11:30;;;;;;;8.00;4.47;;;8.90;96.30;;;;;;5024002;28;20207;-80
2022/11/04 07:13:56;;;;;;;7.63;4.97;;;8.90;96.30;;;;;;5013062;28;20407;-79
2022/11/04 07:16:22;;;;;;;8.70;5.53;;;8.90;96.30;;;;;;5012770;28;20903;-79
2022/11/04 07:18:49;;;;;;;7.17;5.90;;;8.90;96.30;;;;;;5012434;28;20177;-80
2022/11/04 07:21:14;;;;;;;6.47;5.17;;;8.90;96.30;;;;;;5014124;28;20988;-80
2022/11/04 07:23:40;;;;;;;8.07;5.50;;;8.90;96.30;;;;;;5015136;28;20451;-81
2022/11/04 07:26:09;;;;;;;8.33;4.50;;;8.90;96.30;;;;;;5012474;28;20303;-80
2022/11/04 07:28:34;;;;;;;7.87;5.33;;;8.90;96.30;;;;;;4994914;28;20178;-81
2022/11/04 07:31:02;;;;;;;6.50;4.83;;;9.00;96.30;;;;;;4993987;28;20528;-83
2022/11/04 07:33:28;;;;;;;6.97;5.43;;;9.00;96.30;;;;;;4996057;28;20180;-84
2022/11/04 07:35:54;;;;;;;5.90;5.10;;;8.90;96.30;;;;;;5006423;28;20428;-83
2022/11/04 07:38:22;;;;;;;7.80;4.90;;;8.90;96.30;;;;;;5011808;28;20415;-83
2022/11/04 07:40:48;;;;;;;7.07;5.07;;;8.90;96.30;;;;;;5001903;28;20450;-83
2022/11/04 07:43:14;;;;;;;6.47;5.33;;;8.90;96.30;;;;;;5010846;28;20845;-84
2022/11/04 07:45:40;;;;;;;7.83;5.60;;;8.90;96.30;;;;;;5010638;28;20267;-83
2022/11/04 07:48:06;;;;;;;6.30;5.27;;;8.90;96.30;;;;;;5013954;28;20781;-84
2022/11/04 07:50:32;;;;;;;7.33;5.20;;;8.90;96.30;;;;;;5014013;28;20196;-84
2022/11/04 07:52:59;;;;;;;5.57;5.07;;;8.90;96.30;;;;;;5015439;28;20443;-84
2022/11/04 07:55:24;;;;;;;6.73;5.50;;;8.90;96.30;;;;;;5015783;28;20426;-84
2022/11/04 07:57:50;;;;;;;7.50;5.33;;;9.00;96.30;;;;;;5015542;28;20915;-85
2022/11/04 08:00:16;;;;;;;11.40;6.33;;;9.00;96.30;;;;;;5015653;28;20207;-84
2022/11/04 08:02:45;;;;;;;8.40;5.67;;;9.00;96.30;;;;;;5015589;28;20204;-84
2022/11/04 08:05:12;;;;;;;9.23;5.77;;;9.00;96.30;;;;;;5014141;28;20291;-84
2022/11/04 08:07:38;;;;;;;6.80;6.10;;;9.00;96.30;;;;;;5014158;28;20415;-84
2022/11/04 08:10:04;;;;;;;9.07;5.50;;;9.00;96.30;;;;;;5014444;28;20415;-83
2022/11/04 08:12:31;;;;;;;5.33;4.80;;;9.00;96.30;;;;;;5015163;28;20620;-84
2022/11/04 08:14:57;;;;;;;6.83;5.40;;;9.10;96.30;;;;;;5014280;28;20971;-84
2022/11/04 08:17:22;;;;;;;7.00;5.50;;;9.10;96.30;;;;;;5013863;28;20946;-83
2022/11/04 08:19:48;;;;;;;7.20;5.83;;;9.10;96.30;;;;;;5014112;28;20416;-83
2022/11/04 08:22:13;;;;;;;9.53;6.77;;;9.10;96.30;;;;;;4995545;28;20198;-83
2022/11/04 08:24:39;;;;;;;16.73;5.87;;;9.20;96.30;;;;;;4994279;28;20893;-83
2022/11/04 08:27:06;;;;;;;8.07;6.30;;;9.20;96.30;;;;;;4993879;28;20201;-83
2022/11/04 08:29:36;;;;;;;9.27;7.23;;;9.20;96.30;;;;;;4994733;28;20672;-83
2022/11/04 08:32:02;;;;;;;7.67;5.50;;;9.10;96.30;;;;;;4994561;28;20437;-84
2022/11/04 08:34:28;;;;;;;9.50;7.00;;;9.10;96.30;;;;;;4994526;28;20511;-83
2022/11/04 08:36:56;;;;;;;9.50;6.37;;;9.10;96.30;;;;;;4995392;28;20511;-84
2022/11/04 08:39:22;;;;;;;10.43;6.83;;;9.10;96.30;;;;;;4994514;28;20185;-84
2022/11/04 08:41:49;;;;;;;8.83;6.03;;;9.10;96.30;;;;;;4994445;28;20433;-83
2022/11/04 08:44:15;;;;;;;8.57;7.00;;;9.10;96.30;;;;;;4994212;28;20503;-83
2022/11/04 08:46:42;;;;;;;9.00;6.83;;;9.10;96.30;;;;;;4994067;28;20853;-84
2022/11/04 08:49:08;;;;;;;10.30;7.90;;;9.10;96.30;;;;;;4998265;28;20423;-84
2022/11/04 08:51:36;;;;;;;9.00;6.40;;;9.10;96.30;;;;;;5013606;28;20444;-84
2022/11/04 08:54:03;;;;;;;9.97;7.10;;;9.10;96.30;;;;;;5013595;28;20188;-84
2022/11/04 08:56:32;;;;;;;8.90;6.70;;;9.10;96.30;;;;;;5008096;28;20432;-83
2022/11/04 08:58:59;;;;;;;6.87;6.17;;;9.10;96.30;;;;;;4994245;28;20779;-83
2022/11/04 09:01:26;;;;;;;6.37;5.70;;;9.10;96.30;;;;;;4994302;28;20445;-83
2022/11/04 09:03:52;;;;;;;6.30;5.60;;;9.10;96.30;;;;;;4994854;28;21254;-82
2022/11/04 09:06:23;;;;;;;6.40;5.47;;;9.10;96.30;;;;;;4996018;28;20492;-81
2022/11/04 09:08:49;;;;;;;8.30;6.10;;;9.00;96.30;;;;;;4996169;28;20405;-82
2022/11/04 09:11:15;;;;;;;8.90;5.30;;;9.00;96.30;;;;;;4997051;28;20440;-82
2022/11/04 09:13:42;;;;;;;7.47;4.97;;;9.10;96.30;;;;;;4997220;28;20817;-82
2022/11/04 09:16:10;;;;;;;5.40;4.70;;;9.00;96.30;;;;;;4996630;28;20503;-82
2022/11/04 09:18:36;;;;;;;6.37;4.30;;;9.00;96.30;;;;;;4994346;28;20817;-82
2022/11/04 09:21:03;;;;;;;4.80;3.60;;;8.90;96.30;;;;;;4995760;28;20449;-83
2022/11/04 09:23:29;;;;;;;6.63;4.23;;;8.80;96.30;;;;;;4994766;28;20212;-83
2022/11/04 09:25:57;;;;;;;5.10;4.00;;;8.80;96.30;;;;;;4995431;28;20459;-82
2022/11/04 09:28:23;;;;;;;4.57;3.50;;;8.80;96.30;;;;;;4993473;28;20448;-83
2022/11/04 09:30:48;;;;;;;5.27;3.90;;;8.80;96.30;;;;;;4994131;28;20472;-83
2022/11/04 09:33:14;;;;;;;3.60;3.30;;;8.70;96.30;;;;;;4994139;28;20463;-83
2022/11/04 09:35:39;;;;;;;3.57;2.50;;;8.70;96.30;;;;;;4994836;28;20264;-83
2022/11/04 09:38:05;;;;;;;3.07;2.70;;;8.70;96.30;;;;;;4994046;28;20580;-83
2022/11/04 09:40:34;;;;;;;4.10;2.17;;;8.60;96.30;;;;;;4995559;28;20194;-83
2022/11/04 09:43:29;;;;;;;3.13;1.80;;;8.60;96.30;;;;;;4993654;28;20193;-82
2022/11/04 09:45:56;;;;;;;4.40;2.27;;;8.60;96.30;;;;;;4994293;28;20440;-82
2022/11/04 09:48:38;;;;;;;3.40;2.10;;;8.50;96.30;;;;;;4994782;28;20416;-82
2022/11/04 09:51:05;;;;;;;2.70;2.10;;;8.50;96.30;;;;;;4996309;28;20425;-81
2022/11/04 09:53:55;;;;;;;3.03;2.50;;;8.50;96.30;;;;;;4996181;28;20815;-82
2022/11/04 09:56:22;;;;;;;3.03;2.00;;;8.50;96.30;;;;;;4994507;28;20421;-82
2022/11/04 09:58:49;;;;;;;3.50;2.07;;;8.50;96.30;;;;;;4996332;28;20990;-81
2022/11/04 10:01:17;;;;;;;4.20;2.40;;;8.50;96.30;;;;;;4997636;28;20936;-81
2022/11/04 10:03:52;;;;;;;2.37;2.17;;;8.50;96.30;;;;;;4995925;28;20424;-79
2022/11/04 10:06:42;;;;;;;4.43;2.57;;;8.50;96.30;;;;;;4993882;28;20404;-79
2022/11/04 10:09:12;;;;;;;3.40;2.20;;;8.40;96.30;;;;;;4991379;28;20409;-78
2022/11/04 10:11:44;;;;;;;2.93;2.63;;;8.40;96.30;;;;;;4992270;28;20435;-78
2022/11/04 10:14:33;;;;;;;3.13;2.60;;;8.40;96.30;;;;;;4993510;28;20401;-78
2022/11/04 10:17:13;;;;;;;7.70;3.10;;;8.40;96.30;;;;;;4992012;28;20436;-80
2022/11/04 10:20:03;;;;;;;4.37;2.50;;;8.30;96.30;;;;;;4992238;28;20503;-79
2022/11/04 10:23:00;;;;;;;4.40;3.10;;;8.30;96.30;;;;;;4993262;28;20833;-78
2022/11/04 10:25:37;;;;;;;3.13;2.57;;;8.30;96.30;;;;;;4984756;28;20539;-79
2022/11/04 10:28:08;;;;;;;3.17;2.87;;;8.20;96.30;;;;;;4992819;28;20397;-79
2022/11/04 10:30:34;;;;;;;3.67;2.80;;;8.20;96.30;;;;;;4992174;28;20532;-79
2022/11/04 10:33:02;;;;;;;3.50;2.60;;;8.20;96.30;;;;;;4993272;28;20495;-79
2022/11/04 10:35:41;;;;;;;4.70;3.00;;;8.20;96.30;;;;;;4993323;28;20170;-80
2022/11/04 10:38:17;;;;;;;4.00;2.90;;;8.20;96.30;;;;;;4992607;28;20420;-79
2022/11/04 10:40:47;;;;;;;6.03;3.63;;;8.20;96.30;;;;;;4992200;28;20432;-79
2022/11/04 10:43:17;;;;;;;7.63;4.70;;;8.20;96.30;;;;;;4993406;28;20975;-78
2022/11/04 10:45:59;;;;;;;6.60;2.77;;;8.20;96.30;;;;;;4993041;28;20482;-79
2022/11/04 10:48:38;;;;;;;3.63;2.83;;;8.10;96.30;;;;;;4992695;28;20401;-79
2022/11/04 10:51:04;;;;;;;7.60;3.27;;;8.20;96.30;;;;;;4991681;28;20511;-79
2022/11/04 10:53:31;;;;;;;4.17;3.03;;;8.20;96.30;;;;;;4991798;28;20449;-78
2022/11/04 10:56:15;;;;;;;4.30;3.60;;;8.20;96.30;;;;;;4992923;28;20495;-78
2022/11/04 10:58:45;;;;;;;6.37;4.07;;;8.20;96.30;;;;;;4991232;28;20981;-78
2022/11/04 11:01:32;;;;;;;4.07;2.80;;;8.20;96.30;;;;;;4992795;28;20442;-79
2022/11/04 11:03:58;;;;;;;3.30;2.93;;;8.20;96.30;;;;;;4992648;28;20531;-78
2022/11/04 11:06:26;;;;;;;6.57;3.30;;;8.20;96.30;;;;;;4991559;28;20451;-78
2022/11/04 11:08:55;;;;;;;3.13;2.83;;;8.20;96.30;;;;;;4992041;28;20417;-78
2022/11/04 11:11:49;;;;;;;5.40;3.47;;;8.20;96.30;;;;;;4992674;28;20826;-79
2022/11/04 11:14:26;;;;;;;3.43;3.07;;;8.30;96.30;;;;;;4991490;28;20471;-78
2022/11/04 11:16:52;;;;;;;3.27;2.57;;;8.30;96.30;;;;;;4990962;28;20480;-78
2022/11/04 11:19:20;;;;;;;2.70;2.50;;;8.20;96.30;;;;;;4991389;28;20991;-78
2022/11/04 11:21:47;;;;;;;6.30;2.87;;;8.20;96.30;;;;;;4995352;28;20252;-77
2022/11/04 11:24:26;;;;;;;3.97;2.63;;;8.20;96.30;;;;;;4996526;28;20864;-77
2022/11/04 11:26:54;;;;;;;4.40;2.77;;;8.20;96.30;;;;;;4996125;28;20785;-78
2022/11/04 11:29:25;;;;;;;4.50;3.37;;;8.20;96.30;;;;;;4996858;28;20419;-77
2022/11/04 11:31:52;;;;;;;4.50;3.03;;;8.20;96.30;;;;;;4995267;28;20523;-77
2022/11/04 11:34:32;;;;;;;3.77;2.87;;;8.20;96.30;;;;;;4996633;28;20451;-76
2022/11/04 11:37:02;;;;;;;4.00;2.27;;;8.30;96.30;;;;;;5010500;28;20419;-76
2022/11/04 11:39:31;;;;;;;4.53;2.70;;;8.30;96.30;;;;;;4997323;28;20504;-78
2022/11/04 11:42:10;;;;;;;5.17;2.40;;;8.40;96.30;;;;;;4998280;28;20436;-77
2022/11/04 11:44:43;;;;;;;4.70;2.60;;;8.40;96.30;;;;;;5015784;28;20482;-77
2022/11/04 11:47:31;;;;;;;4.70;2.60;;;8.30;96.30;;;;;;5002064;28;20508;-77
2022/11/04 11:50:12;;;;;;;4.93;2.27;;;8.30;96.30;;;;;;4991944;28;20422;-80
2022/11/04 12:00:19;;;;;;;3.23;2.13;;;8.60;96.30;;;;;;4930545;28;20488;-80
2022/11/04 12:03:06;;;;;;;4.50;1.77;;;8.60;96.30;;;;;;4988906;28;20551;-79
2022/11/04 12:05:42;;;;;;;2.60;2.30;;;8.70;96.30;;;;;;4977309;28;20453;-80
2022/11/04 12:08:13;;;;;;;2.13;1.80;;;8.80;96.30;;;;;;4982122;28;20413;-79
2022/11/04 12:10:58;;;;;;;3.10;2.23;;;8.90;96.30;;;;;;4990856;28;20957;-80
2022/11/04 12:13:28;;;;;;;3.20;1.93;;;8.90;96.30;;;;;;4994059;28;20405;-80
2022/11/04 12:16:27;;;;;;;2.60;1.90;;;8.90;96.30;;;;;;4995431;28;20478;-80
2022/11/04 12:19:03;;;;;;;3.07;2.13;;;8.90;96.30;;;;;;4994865;28;20405;-80
2022/11/04 12:21:40;;;;;;;5.83;2.43;;;8.80;96.30;;;;;;4995968;28;20912;-81
2022/11/04 12:24:49;;;;;;;1.63;1.50;;;8.70;96.30;;;;;;4995994;28;20428;-80
2022/11/04 12:27:46;;;;;;;5.23;2.03;;;8.60;96.30;;;;;;4953208;29;20434;-81
2022/11/04 12:30:15;;;;;;;2.43;2.23;;;8.50;96.30;;;;;;4913741;29;22095;-83
2022/11/04 12:33:08;;;;;;;3.43;1.43;;;8.60;96.30;;;;;;4983248;28;20479;-84
2022/11/04 12:35:52;;;;;;;3.67;1.90;;;8.60;96.30;;;;;;4995067;28;21117;-83
2022/11/04 12:38:36;;;;;;;2.10;1.67;;;8.70;96.30;;;;;;4991201;28;20424;-82
2022/11/04 12:41:06;;;;;;;3.40;1.70;;;8.70;96.30;;;;;;4995839;28;20951;-82
2022/11/04 12:43:56;;;;;;;1.90;1.73;;;8.70;96.30;;;;;;4997079;28;20427;-82
2022/11/04 12:46:52;;;;;;;2.80;1.87;;;8.70;96.30;;;;;;4993015;28;20433;-82
2022/11/04 12:49:21;;;;;;;4.30;2.17;;;8.60;96.30;;;;;;4969397;28;20445;-82
2022/11/04 12:52:04;;;;;;;3.83;2.30;;;8.60;96.30;;;;;;4976348;28;20430;-82
2022/11/04 12:54:37;;;;;;;4.53;1.60;;;8.50;96.30;;;;;;4985388;28;20850;-83
2022/11/04 12:57:18;;;;;;;1.87;1.63;;;8.50;96.30;;;;;;4983197;28;20437;-83
2022/11/04 13:00:03;;;;;;;3.80;1.20;;;8.40;96.30;;;;;;4974580;28;20612;-83
2022/11/04 13:02:42;;;;;;;1.57;1.27;;;8.40;96.30;;;;;;4974079;28;20445;-81
2022/11/04 13:05:29;;;;;;;3.47;1.53;;;8.40;96.30;;;;;;4988063;28;20459;-82
2022/11/04 13:08:59;;;;;;;4.90;1.37;;;8.40;96.30;;;;;;4997702;28;20456;-82
2022/11/04 13:12:17;;;;;;;;;;;;;;;;;;;;;
2022/11/04 13:14:46;;;;;;;1.23;1.13;;;8.40;96.30;;;;;;4970785;28;20509;-81
2022/11/04 13:17:15;;;;;;;1.30;1.00;;;8.30;96.30;;;;;;4937052;29;20521;-81
2022/11/04 13:19:57;;;;;;;2.70;1.37;;;8.30;96.30;;;;;;4973942;28;20425;-82
2022/11/04 13:22:31;;;;;;;2.40;1.43;;;8.30;96.30;;;;;;4973840;28;20512;-81
2022/11/04 13:25:29;;;;;;;3.47;1.07;;;8.40;96.30;;;;;;4974388;28;20453;-81
2022/11/04 13:27:56;;;;;;;3.37;1.60;;;8.30;96.30;;;;;;4974050;28;20414;-82
2022/11/04 13:30:50;;;;;;;3.50;1.50;;;8.40;96.30;;;;;;4975418;28;20502;-80
2022/11/04 13:33:43;;;;;;;2.67;1.27;;;8.30;96.30;;;;;;4976154;28;20893;-81
2022/11/04 13:36:27;;;;;;;2.07;1.43;;;8.30;96.30;;;;;;4975401;28;20926;-82
2022/11/04 13:39:03;;;;;;;1.47;1.10;;;8.20;96.30;;;;;;4975442;28;20433;-83
2022/11/04 13:41:57;;;;;;;2.23;1.30;;;8.20;96.30;;;;;;4977796;28;20437;-82
2022/11/04 13:44:29;;;;;;;2.20;1.27;;;8.10;96.30;;;;;;4987555;28;20532;-81
2022/11/04 13:46:58;;;;;;;4.10;1.60;;;8.10;96.30;;;;;;4992339;28;20451;-82
2022/11/04 13:49:32;;;;;;;3.53;1.80;;;8.00;96.30;;;;;;4987837;28;20448;-81
2022/11/04 13:52:12;;;;;;;2.00;1.47;;;7.90;96.30;;;;;;4983564;28;20428;-82
2022/11/04 13:54:53;;;;;;;2.50;1.77;;;7.90;96.30;;;;;;4978149;28;20436;-81
2022/11/04 13:57:32;;;;;;;2.30;1.30;;;7.80;96.30;;;;;;4979135;28;20421;-82
2022/11/04 14:00:09;;;;;;;3.47;1.70;;;7.80;96.30;;;;;;4986137;28;20433;-83
2022/11/04 14:02:44;;;;;;;3.27;1.50;;;7.90;96.30;;;;;;4991126;28;20474;-83
2022/11/04 14:05:38;;;;;;;4.20;1.60;;;7.80;96.30;;;;;;4995352;28;20444;-82
2022/11/04 14:08:15;;;;;;;5.13;1.63;;;7.80;96.30;;;;;;4978016;28;20505;-80
2022/11/04 14:10:49;;;;;;;2.80;1.83;;;7.80;96.30;;;;;;4976320;28;20452;-81
2022/11/04 14:13:30;;;;;;;2.80;1.83;;;7.80;96.30;;;;;;4977689;28;20508;-82
2022/11/04 14:16:09;;;;;;;5.77;1.63;;;7.80;96.30;;;;;;4976067;28;20464;-81
2022/11/04 14:18:38;;;;;;;3.37;2.30;;;7.80;96.30;;;;;;4973932;28;20822;-80
2022/11/04 14:21:09;;;;;;;4.43;1.90;;;7.70;96.30;;;;;;4985286;28;20802;-80
2022/11/04 14:23:37;;;;;;;2.20;1.50;;;7.70;96.30;;;;;;4991383;28;20398;-81
2022/11/04 14:26:09;;;;;;;1.90;1.70;;;7.70;96.30;;;;;;4975798;28;20556;-81
2022/11/04 14:28:35;;;;;;;6.30;1.73;;;7.70;96.30;;;;;;4981679;28;20872;-81
2022/11/04 14:31:04;;;;;;;2.90;1.70;;;7.70;96.30;;;;;;4987950;28;20433;-81
2022/11/04 14:33:51;;;;;;;5.10;2.87;;;7.70;96.30;;;;;;4974922;28;20421;-79
2022/11/04 14:36:19;;;;;;;2.37;1.83;;;7.60;96.30;;;;;;4973807;28;20453;-80
2022/11/04 14:38:53;;;;;;;1.73;1.37;;;7.60;96.30;;;;;;4972204;28;20995;-82
2022/11/04 14:41:29;;;;;;;2.60;1.70;;;7.60;96.30;;;;;;4977394;28;20436;-81
2022/11/04 14:43:59;;;;;;;2.23;1.50;;;7.60;96.30;;;;;;4992245;28;20408;-82
2022/11/04 14:46:28;;;;;;;2.67;1.60;;;7.50;96.30;;;;;;4992255;28;20951;-82
2022/11/04 14:48:56;;;;;;;2.23;1.90;;;7.50;96.30;;;;;;4975430;28;20925;-82
2022/11/04 14:51:29;;;;;;;6.07;2.13;;;7.50;96.30;;;;;;4972944;28;20530;-82
2022/11/04 14:54:18;;;;;;;4.63;2.20;;;7.50;96.30;;;;;;4990028;28;20448;-82
2022/11/04 14:56:45;;;;;;;3.10;1.70;;;7.50;96.30;;;;;;4991444;28;20424;-82
2022/11/04 14:59:21;;;;;;;5.50;2.93;;;7.40;96.30;;;;;;4991868;28;20428;-82
2022/11/04 15:01:48;;;;;;;5.80;1.87;;;7.40;96.30;;;;;;4992816;28;20432;-81
2022/11/04 15:04:25;;;;;;;4.63;1.80;;;7.40;96.30;;;;;;4991572;28;20417;-80
2022/11/04 15:06:57;;;;;;;2.40;1.77;;;7.40;96.30;;;;;;4991514;28;20441;-79
2022/11/04 15:09:31;;;;;;;2.47;1.67;;;7.40;96.30;;;;;;4992793;28;20397;-80
2022/11/04 15:14:54;;;;;;;2.43;1.87;;;7.30;96.30;;;;;;4992954;28;20392;-80
2022/11/04 15:17:21;;;;;;;3.13;1.90;;;7.30;96.30;;;;;;4990937;28;20417;-81
2022/11/04 15:19:52;;;;;;;5.37;1.70;;;7.30;96.30;;;;;;4992781;28;20495;-79
2022/11/04 15:22:19;;;;;;;4.63;2.00;;;7.30;96.30;;;;;;4992803;28;20519;-82
2022/11/04 15:24:45;;;;;;;4.13;2.20;;;7.30;96.30;;;;;;4992950;28;20952;-82
2022/11/04 15:27:17;;;;;;;5.70;1.67;;;7.30;96.30;;;;;;4991892;28;20983;-82
2022/11/04 15:29:53;;;;;;;4.70;1.97;;;7.20;96.30;;;;;;4993022;28;20417;-81
2022/11/04 15:32:19;;;;;;;10.17;2.20;;;7.20;96.30;;;;;;4991557;28;20448;-81
2022/11/04 15:34:45;;;;;;;11.17;2.10;;;7.20;96.30;;;;;;4988522;28;20950;-80
2022/11/04 15:37:11;;;;;;;4.43;2.67;;;7.20;96.30;;;;;;4983439;28;20205;-79
2022/11/04 15:39:42;;;;;;;3.17;2.03;;;7.20;96.30;;;;;;4981248;28;20266;-81
2022/11/04 15:42:44;;;;;;;3.20;1.60;;;7.10;96.30;;;;;;4984637;28;20591;-81
2022/11/04 15:45:31;;;;;;;4.80;2.07;;;7.10;96.30;;;;;;4974510;28;20467;-82
2022/11/04 15:48:27;;;;;;;3.07;1.83;;;7.10;96.30;;;;;;4991994;28;20427;-82
2022/11/04 15:51:02;;;;;;;2.20;1.97;;;7.10;96.30;;;;;;4994146;28;20424;-82
2022/11/04 15:53:27;;;;;;;6.10;2.50;;;7.10;96.30;;;;;;4993642;28;20461;-82
2022/11/04 15:55:54;;;;;;;8.90;2.23;;;7.10;96.30;;;;;;4993141;28;20416;-82
2022/11/04 15:58:20;;;;;;;4.53;2.60;;;7.00;96.30;;;;;;4992059;28;20193;-82
2022/11/04 16:00:54;;;;;;;11.27;2.47;;;7.00;96.30;;;;;;4985156;28;20456;-82
2022/11/04 16:03:21;;;;;;;5.83;2.53;;;7.00;96.30;;;;;;4990095;28;20413;-81
2022/11/04 16:06:05;;;;;;;3.93;2.20;;;7.00;96.30;;;;;;4989953;28;21010;-81
2022/11/04 16:08:32;;;;;;;4.33;2.27;;;7.00;96.30;;;;;;4991199;28;20404;-81
2022/11/04 16:11:07;;;;;;;4.17;2.13;;;7.00;96.30;;;;;;4992846;28;21236;-80
2022/11/04 16:13:33;;;;;;;6.40;2.87;;;7.00;96.30;;;;;;4993457;28;20514;-81
2022/11/04 16:15:58;;;;;;;2.80;2.23;;;7.00;96.30;;;;;;4993458;28;20763;-80
2022/11/04 16:18:33;;;;;;;4.73;2.80;;;7.00;96.30;;;;;;4979030;28;21009;-80
2022/11/04 16:21:06;;;;;;;3.63;2.53;;;7.00;96.30;;;;;;4973622;28;20220;-80
2022/11/04 16:23:37;;;;;;;4.17;2.17;;;7.00;96.30;;;;;;4973252;28;20460;-80
2022/11/04 16:26:05;;;;;;;2.83;2.13;;;7.00;96.30;;;;;;4974752;28;20483;-79
2022/11/04 16:28:35;;;;;;;3.90;2.83;;;7.00;96.30;;;;;;4972532;28;20425;-80
2022/11/04 16:31:06;;;;;;;5.43;3.50;;;7.00;96.30;;;;;;4974710;28;20438;-79
2022/11/04 16:33:32;;;;;;;2.93;2.73;;;7.00;96.30;;;;;;4973334;28;20429;-79
2022/11/04 16:35:57;;;;;;;5.60;2.47;;;7.00;96.30;;;;;;4973296;28;20433;-79
2022/11/04 16:38:23;;;;;;;4.33;2.60;;;7.00;96.30;;;;;;4974509;28;20182;-80
2022/11/04 16:40:49;;;;;;;3.10;2.30;;;6.90;96.30;;;;;;4974612;28;20729;-80
2022/11/04 16:43:18;;;;;;;3.57;2.40;;;6.90;96.30;;;;;;4974807;28;20269;-79
2022/11/04 16:45:48;;;;;;;6.20;2.60;;;6.90;96.30;;;;;;4989285;28;20838;-80
2022/11/04 16:48:19;;;;;;;5.90;3.70;;;6.90;96.30;;;;;;4994408;28;20908;-80
2022/11/04 16:50:45;;;;;;;5.40;3.23;;;6.90;96.30;;;;;;4994848;28;20432;-79
2022/11/04 16:53:12;;;;;;;5.50;3.03;;;6.90;96.30;;;;;;4995131;28;20483;-79
2022/11/04 16:55:42;;;;;;;3.53;2.57;;;6.90;96.30;;;;;;4994784;28;20507;-79
2022/11/04 16:58:17;;;;;;;4.57;3.77;;;6.90;96.30;;;;;;4993099;28;20420;-79
2022/11/04 17:00:43;;;;;;;5.63;2.70;;;6.90;96.30;;;;;;4992535;28;20450;-80
2022/11/04 17:03:20;;;;;;;3.20;2.90;;;6.90;96.30;;;;;;4995043;28;20504;-79
2022/11/04 17:05:47;;;;;;;3.27;2.83;;;6.90;96.30;;;;;;4995344;28;20232;-80
2022/11/04 17:08:13;;;;;;;6.87;3.90;;;6.90;96.30;;;;;;5019375;28;20413;-79
2022/11/04 17:10:38;;;;;;;7.00;3.60;;;6.90;96.30;;;;;;5019270;28;20493;-79
2022/11/04 17:13:04;;;;;;;6.67;4.33;;;6.90;96.30;;;;;;5020287;28;20225;-78
2022/11/04 17:15:29;;;;;;;4.70;3.67;;;6.90;96.30;;;;;;5019792;28;20157;-78
2022/11/04 17:17:55;;;;;;;3.83;3.43;;;6.90;96.30;;;;;;5012710;28;20285;-80
2022/11/04 17:20:21;;;;;;;3.73;3.40;;;6.90;96.30;;;;;;4994483;28;20180;-81
2022/11/04 17:22:47;;;;;;;8.73;4.23;;;6.90;96.30;;;;;;4994710;28;20180;-80
2022/11/04 17:25:21;;;;;;;4.67;3.27;;;6.90;96.30;;;;;;4994688;28;20464;-80
2022/11/04 17:27:47;;;;;;;4.23;3.83;;;6.90;96.30;;;;;;4995770;28;20467;-81
2022/11/04 17:30:13;;;;;;;4.43;3.83;;;6.90;96.30;;;;;;4994965;28;20452;-81
2022/11/04 17:32:40;;;;;;;5.90;3.50;;;6.90;96.30;;;;;;4996385;28;20774;-80
2022/11/04 17:35:06;;;;;;;8.90;3.33;;;6.90;96.30;;;;;;4994802;28;20201;-80
2022/11/04 17:37:31;;;;;;;4.70;4.20;;;6.90;96.30;;;;;;4995830;28;20452;-81
2022/11/04 17:39:57;;;;;;;6.17;3.33;;;6.90;96.30;;;;;;4995278;28;20654;-81
2022/11/04 17:45:07;;;;;;;3.57;3.20;;;6.90;96.30;;;;;;4996922;28;20212;-81
2022/11/04 17:47:37;;;;;;;5.07;3.57;;;6.80;96.30;;;;;;4994354;28;20448;-81
2022/11/04 17:50:05;;;;;;;9.17;3.93;;;6.80;96.30;;;;;;4999523;28;20405;-78
2022/11/04 19:05:01;;;;;;;4.30;2.80;;;6.90;96.30;;;;;;5041851;23;21142;-81
2022/11/04 19:07:26;;;;;;;13.20;3.57;;;6.90;96.30;;;;;;5014014;28;20408;-81
2022/11/04 19:09:53;;;;;;;4.40;3.50;;;6.90;96.30;;;;;;5012784;28;20172;-81
2022/11/04 19:15:04;;;;;;;10.07;3.90;;;6.90;96.30;;;;;;4995398;28;20419;-81
2022/11/04 19:17:29;;;;;;;7.67;3.40;;;6.90;96.30;;;;;;4994581;28;20412;-81
2022/11/04 19:19:55;;;;;;;8.60;4.00;;;7.00;96.30;;;;;;4995371;28;20479;-80
2022/11/04 19:22:20;;;;;;;5.20;3.90;;;7.00;96.30;;;;;;4995796;28;20328;-80
2022/11/04 19:24:46;;;;;;;10.10;5.43;;;7.00;96.30;;;;;;4993465;28;20205;-81
2022/11/04 19:27:12;;;;;;;15.10;4.50;;;7.00;96.30;;;;;;4992952;28;20184;-81
2022/11/04 19:29:37;;;;;;;4.80;4.40;;;6.90;96.30;;;;;;4994870;28;20176;-80
2022/11/04 19:32:03;;;;;;;7.67;4.10;;;6.90;96.30;;;;;;4995215;28;20193;-81
2022/11/04 19:34:28;;;;;;;6.77;4.60;;;6.90;96.30;;;;;;4995456;28;20192;-81
2022/11/04 19:36:54;;;;;;;10.20;5.07;;;6.90;96.30;;;;;;4995564;28;20469;-80
2022/11/04 19:39:19;;;;;;;11.07;5.87;;;6.90;96.30;;;;;;4996891;28;20185;-80
2022/11/04 19:44:30;;;;;;;7.63;5.33;;;6.90;96.30;;;;;;5001333;28;20256;-82